sensor_id;sensor_type;location;lat;lon;timestamp;temperature;humidity
27819;DHT22;15192;44.854;10.046;2023-08-07T00:02:14;19.30;97.10
27819;DHT22;15192;44.854;10.046;2023-08-07T00:04:42;19.20;97.10
27819;DHT22;15192;44.854;10.046;2023-08-07T00:07:10;19.20;97.20
27819;DHT22;15192;44.854;10.046;2023-08-07T00:09:38;19.10;97.40
27819;DHT22;15192;44.854;10.046;2023-08-07T00:12:06;19.00;97.50
27819;DHT22;15192;44.854;10.046;2023-08-07T00:14:34;19.00;97.70
27819;DHT22;15192;44.854;10.046;2023-08-07T00:17:02;18.90;98.00
27819;DHT22;15192;44.854;10.046;2023-08-07T00:19:32;18.80;98.20
27819;DHT22;15192;44.854;10.046;2023-08-07T00:22:00;18.70;98.40
27819;DHT22;15192;44.854;10.046;2023-08-07T00:24:28;18.60;98.60
27819;DHT22;15192;44.854;10.046;2023-08-07T00:26:56;18.50;98.90
27819;DHT22;15192;44.854;10.046;2023-08-07T00:29:24;18.50;98.90
27819;DHT22;15192;44.854;10.046;2023-08-07T00:31:52;18.40;99.10
27819;DHT22;15192;44.854;10.046;2023-08-07T00:34:20;18.30;99.30
27819;DHT22;15192;44.854;10.046;2023-08-07T00:36:49;18.20;99.40
27819;DHT22;15192;44.854;10.046;2023-08-07T00:39:17;18.20;99.60
27819;DHT22;15192;44.854;10.046;2023-08-07T00:41:45;18.10;99.90
27819;DHT22;15192;44.854;10.046;2023-08-07T00:44:13;18.00;99.90
27819;DHT22;15192;44.854;10.046;2023-08-07T00:46:41;17.80;99.90
27819;DHT22;15192;44.854;10.046;2023-08-07T00:49:11;17.80;99.90
27819;DHT22;15192;44.854;10.046;2023-08-07T00:51:39;17.70;99.90
27819;DHT22;15192;44.854;10.046;2023-08-07T00:54:08;17.60;99.90
27819;DHT22;15192;44.854;10.046;2023-08-07T00:56:37;17.50;99.90
27819;DHT22;15192;44.854;10.046;2023-08-07T00:59:07;17.40;99.90
27819;DHT22;15192;44.854;10.046;2023-08-07T01:01:35;17.30;99.90
27819;DHT22;15192;44.854;10.046;2023-08-07T01:04:03;17.30;99.90
27819;DHT22;15192;44.854;10.046;2023-08-07T01:06:32;17.20;99.90
27819;DHT22;15192;44.854;10.046;2023-08-07T01:09:00;17.10;99.90
27819;DHT22;15192;44.854;10.046;2023-08-07T01:14:08;17.00;99.90
27819;DHT22;15192;44.854;10.046;2023-08-07T01:16:44;16.90;99.90
27819;DHT22;15192;44.854;10.046;2023-08-07T01:19:08;16.80;99.90
27819;DHT22;15192;44.854;10.046;2023-08-07T01:21:36;16.80;99.90
27819;DHT22;15192;44.854;10.046;2023-08-07T01:24:05;16.80;99.90
27819;DHT22;15192;44.854;10.046;2023-08-07T01:26:33;16.60;99.90
27819;DHT22;15192;44.854;10.046;2023-08-07T01:29:09;16.50;99.90
27819;DHT22;15192;44.854;10.046;2023-08-07T01:31:33;16.40;99.90
27819;DHT22;15192;44.854;10.046;2023-08-07T01:34:05;16.30;99.90
27819;DHT22;15192;44.854;10.046;2023-08-07T01:36:31;16.20;99.90
27819;DHT22;15192;44.854;10.046;2023-08-07T01:38:59;16.10;99.90
27819;DHT22;15192;44.854;10.046;2023-08-07T01:41:30;16.00;99.90
27819;DHT22;15192;44.854;10.046;2023-08-07T01:43:58;16.00;99.90
27819;DHT22;15192;44.854;10.046;2023-08-07T01:46:26;16.00;99.90
27819;DHT22;15192;44.854;10.046;2023-08-07T01:48:54;16.00;99.90
27819;DHT22;15192;44.854;10.046;2023-08-07T01:51:22;16.10;99.90
27819;DHT22;15192;44.854;10.046;2023-08-07T01:53:50;16.10;99.90
27819;DHT22;15192;44.854;10.046;2023-08-07T01:56:18;16.10;99.90
27819;DHT22;15192;44.854;10.046;2023-08-07T01:58:46;16.20;99.90
27819;DHT22;15192;44.854;10.046;2023-08-07T02:01:14;16.20;99.90
27819;DHT22;15192;44.854;10.046;2023-08-07T02:03:42;16.20;99.90
27819;DHT22;15192;44.854;10.046;2023-08-07T02:06:10;16.20;99.90
27819;DHT22;15192;44.854;10.046;2023-08-07T02:08:38;16.30;99.90
27819;DHT22;15192;44.854;10.046;2023-08-07T02:11:06;16.40;99.90
27819;DHT22;15192;44.854;10.046;2023-08-07T02:13:36;16.40;99.90
27819;DHT22;15192;44.854;10.046;2023-08-07T02:16:05;16.40;99.90
27819;DHT22;15192;44.854;10.046;2023-08-07T02:18:33;16.30;99.90
27819;DHT22;15192;44.854;10.046;2023-08-07T02:21:01;16.20;99.90
27819;DHT22;15192;44.854;10.046;2023-08-07T02:23:29;16.10;99.90
27819;DHT22;15192;44.854;10.046;2023-08-07T02:25:57;16.10;99.90
27819;DHT22;15192;44.854;10.046;2023-08-07T02:28:25;16.00;99.90
27819;DHT22;15192;44.854;10.046;2023-08-07T02:30:53;16.00;99.90
27819;DHT22;15192;44.854;10.046;2023-08-07T02:33:21;15.90;99.90
27819;DHT22;15192;44.854;10.046;2023-08-07T02:35:49;15.80;99.90
27819;DHT22;15192;44.854;10.046;2023-08-07T02:38:18;15.70;99.90
27819;DHT22;15192;44.854;10.046;2023-08-07T02:40:47;15.70;99.90
27819;DHT22;15192;44.854;10.046;2023-08-07T02:43:15;15.60;99.90
27819;DHT22;15192;44.854;10.046;2023-08-07T02:45:43;15.50;99.90
27819;DHT22;15192;44.854;10.046;2023-08-07T02:48:10;15.40;99.90
27819;DHT22;15192;44.854;10.046;2023-08-07T02:50:39;15.30;99.90
27819;DHT22;15192;44.854;10.046;2023-08-07T02:53:07;15.30;99.90
27819;DHT22;15192;44.854;10.046;2023-08-07T02:55:35;15.20;99.90
27819;DHT22;15192;44.854;10.046;2023-08-07T02:58:03;15.10;99.90
27819;DHT22;15192;44.854;10.046;2023-08-07T03:00:31;15.10;99.90
27819;DHT22;15192;44.854;10.046;2023-08-07T03:03:01;15.00;99.90
27819;DHT22;15192;44.854;10.046;2023-08-07T03:05:29;15.10;99.90
27819;DHT22;15192;44.854;10.046;2023-08-07T03:07:57;15.10;99.90
27819;DHT22;15192;44.854;10.046;2023-08-07T03:10:25;15.10;99.90
27819;DHT22;15192;44.854;10.046;2023-08-07T03:12:53;15.00;99.90
27819;DHT22;15192;44.854;10.046;2023-08-07T03:15:21;15.00;99.90
27819;DHT22;15192;44.854;10.046;2023-08-07T03:17:49;14.90;99.90
27819;DHT22;15192;44.854;10.046;2023-08-07T03:20:17;14.90;99.90
27819;DHT22;15192;44.854;10.046;2023-08-07T03:22:45;14.80;99.90
27819;DHT22;15192;44.854;10.046;2023-08-07T03:25:13;14.80;99.90
27819;DHT22;15192;44.854;10.046;2023-08-07T03:27:41;14.70;99.90
27819;DHT22;15192;44.854;10.046;2023-08-07T03:30:10;14.60;99.90
27819;DHT22;15192;44.854;10.046;2023-08-07T03:32:38;14.60;99.90
27819;DHT22;15192;44.854;10.046;2023-08-07T03:35:07;14.50;99.90
27819;DHT22;15192;44.854;10.046;2023-08-07T03:37:35;14.50;99.90
27819;DHT22;15192;44.854;10.046;2023-08-07T03:40:03;14.40;99.90
27819;DHT22;15192;44.854;10.046;2023-08-07T03:42:32;14.40;99.90
27819;DHT22;15192;44.854;10.046;2023-08-07T03:45:00;14.40;99.90
27819;DHT22;15192;44.854;10.046;2023-08-07T03:47:28;14.40;99.90
27819;DHT22;15192;44.854;10.046;2023-08-07T03:49:57;14.30;99.90
27819;DHT22;15192;44.854;10.046;2023-08-07T03:52:25;14.30;99.90
27819;DHT22;15192;44.854;10.046;2023-08-07T03:54:54;14.30;99.90
27819;DHT22;15192;44.854;10.046;2023-08-07T03:57:22;14.30;99.90
27819;DHT22;15192;44.854;10.046;2023-08-07T03:59:50;14.40;99.90
27819;DHT22;15192;44.854;10.046;2023-08-07T04:02:18;14.30;99.90
27819;DHT22;15192;44.854;10.046;2023-08-07T04:04:46;14.30;99.90
27819;DHT22;15192;44.854;10.046;2023-08-07T04:07:14;14.30;99.90
27819;DHT22;15192;44.854;10.046;2023-08-07T04:09:42;14.20;99.90
27819;DHT22;15192;44.854;10.046;2023-08-07T04:12:10;14.20;99.90
27819;DHT22;15192;44.854;10.046;2023-08-07T04:14:38;14.20;99.90
27819;DHT22;15192;44.854;10.046;2023-08-07T04:17:07;14.20;99.90
27819;DHT22;15192;44.854;10.046;2023-08-07T04:19:35;14.30;99.90
27819;DHT22;15192;44.854;10.046;2023-08-07T04:22:03;14.30;99.90
27819;DHT22;15192;44.854;10.046;2023-08-07T04:24:32;14.40;99.90
27819;DHT22;15192;44.854;10.046;2023-08-07T04:27:00;14.40;99.90
27819;DHT22;15192;44.854;10.046;2023-08-07T04:29:28;14.40;99.90
27819;DHT22;15192;44.854;10.046;2023-08-07T04:31:56;14.40;99.90
27819;DHT22;15192;44.854;10.046;2023-08-07T04:34:24;14.50;99.90
27819;DHT22;15192;44.854;10.046;2023-08-07T04:36:52;14.60;99.90
27819;DHT22;15192;44.854;10.046;2023-08-07T04:39:20;14.60;99.90
27819;DHT22;15192;44.854;10.046;2023-08-07T04:41:49;14.70;99.90
27819;DHT22;15192;44.854;10.046;2023-08-07T04:44:17;14.70;99.90
27819;DHT22;15192;44.854;10.046;2023-08-07T04:46:45;14.80;99.90
27819;DHT22;15192;44.854;10.046;2023-08-07T04:49:13;15.00;99.90
27819;DHT22;15192;44.854;10.046;2023-08-07T04:51:41;15.10;99.90
27819;DHT22;15192;44.854;10.046;2023-08-07T04:54:09;15.10;99.90
27819;DHT22;15192;44.854;10.046;2023-08-07T04:56:38;15.20;99.90
27819;DHT22;15192;44.854;10.046;2023-08-07T04:59:06;15.20;99.90
27819;DHT22;15192;44.854;10.046;2023-08-07T05:01:33;15.40;99.90
27819;DHT22;15192;44.854;10.046;2023-08-07T05:04:01;15.50;99.90
27819;DHT22;15192;44.854;10.046;2023-08-07T05:06:31;15.60;99.90
27819;DHT22;15192;44.854;10.046;2023-08-07T05:08:59;15.70;99.90
27819;DHT22;15192;44.854;10.046;2023-08-07T05:11:27;15.70;99.90
27819;DHT22;15192;44.854;10.046;2023-08-07T05:13:55;15.70;99.90
27819;DHT22;15192;44.854;10.046;2023-08-07T05:16:23;15.80;99.90
27819;DHT22;15192;44.854;10.046;2023-08-07T05:18:51;15.90;99.90
27819;DHT22;15192;44.854;10.046;2023-08-07T05:21:19;16.00;99.90
27819;DHT22;15192;44.854;10.046;2023-08-07T05:23:47;16.50;99.90
27819;DHT22;15192;44.854;10.046;2023-08-07T05:26:16;17.60;99.90
27819;DHT22;15192;44.854;10.046;2023-08-07T05:28:44;19.10;99.90
27819;DHT22;15192;44.854;10.046;2023-08-07T05:31:12;20.40;99.90
27819;DHT22;15192;44.854;10.046;2023-08-07T05:33:40;21.80;99.90
27819;DHT22;15192;44.854;10.046;2023-08-07T05:36:08;22.80;99.90
27819;DHT22;15192;44.854;10.046;2023-08-07T05:38:36;23.80;99.60
27819;DHT22;15192;44.854;10.046;2023-08-07T05:41:04;24.60;98.20
27819;DHT22;15192;44.854;10.046;2023-08-07T05:43:32;25.40;97.70
27819;DHT22;15192;44.854;10.046;2023-08-07T05:46:00;25.90;97.00
27819;DHT22;15192;44.854;10.046;2023-08-07T05:48:28;26.30;95.40
27819;DHT22;15192;44.854;10.046;2023-08-07T05:50:56;26.90;94.70
27819;DHT22;15192;44.854;10.046;2023-08-07T05:53:24;27.10;93.10
27819;DHT22;15192;44.854;10.046;2023-08-07T05:55:52;27.50;92.50
27819;DHT22;15192;44.854;10.046;2023-08-07T05:58:20;27.70;91.20
27819;DHT22;15192;44.854;10.046;2023-08-07T06:00:48;27.50;89.90
27819;DHT22;15192;44.854;10.046;2023-08-07T06:03:16;27.10;89.80
27819;DHT22;15192;44.854;10.046;2023-08-07T06:05:44;26.90;90.00
27819;DHT22;15192;44.854;10.046;2023-08-07T06:08:12;26.60;90.10
27819;DHT22;15192;44.854;10.046;2023-08-07T06:10:40;26.20;89.40
27819;DHT22;15192;44.854;10.046;2023-08-07T06:13:08;26.00;88.20
27819;DHT22;15192;44.854;10.046;2023-08-07T06:15:37;25.70;87.60
27819;DHT22;15192;44.854;10.046;2023-08-07T06:18:05;25.50;88.20
27819;DHT22;15192;44.854;10.046;2023-08-07T06:20:33;25.30;89.10
27819;DHT22;15192;44.854;10.046;2023-08-07T06:23:02;25.20;88.80
27819;DHT22;15192;44.854;10.046;2023-08-07T06:25:30;25.10;86.70
27819;DHT22;15192;44.854;10.046;2023-08-07T06:27:58;25.10;87.40
27819;DHT22;15192;44.854;10.046;2023-08-07T06:30:26;25.00;88.00
27819;DHT22;15192;44.854;10.046;2023-08-07T06:32:54;24.90;88.50
27819;DHT22;15192;44.854;10.046;2023-08-07T06:35:22;24.80;87.30
27819;DHT22;15192;44.854;10.046;2023-08-07T06:37:50;24.60;87.80
27819;DHT22;15192;44.854;10.046;2023-08-07T06:40:18;24.60;88.20
27819;DHT22;15192;44.854;10.046;2023-08-07T06:42:46;24.40;87.60
27819;DHT22;15192;44.854;10.046;2023-08-07T06:45:14;24.40;86.80
27819;DHT22;15192;44.854;10.046;2023-08-07T06:47:42;24.40;84.60
27819;DHT22;15192;44.854;10.046;2023-08-07T06:50:10;24.30;86.20
27819;DHT22;15192;44.854;10.046;2023-08-07T06:52:38;24.40;88.50
27819;DHT22;15192;44.854;10.046;2023-08-07T06:55:06;24.40;85.90
27819;DHT22;15192;44.854;10.046;2023-08-07T06:57:34;24.40;87.80
27819;DHT22;15192;44.854;10.046;2023-08-07T07:00:03;24.40;86.20
27819;DHT22;15192;44.854;10.046;2023-08-07T07:02:32;24.50;87.20
27819;DHT22;15192;44.854;10.046;2023-08-07T07:05:00;24.40;84.80
27819;DHT22;15192;44.854;10.046;2023-08-07T07:07:28;24.50;86.50
27819;DHT22;15192;44.854;10.046;2023-08-07T07:09:56;24.40;86.80
27819;DHT22;15192;44.854;10.046;2023-08-07T07:12:26;24.30;86.80
27819;DHT22;15192;44.854;10.046;2023-08-07T07:14:54;24.40;87.00
27819;DHT22;15192;44.854;10.046;2023-08-07T07:17:22;24.50;85.60
27819;DHT22;15192;44.854;10.046;2023-08-07T07:19:50;24.50;84.70
27819;DHT22;15192;44.854;10.046;2023-08-07T07:22:18;24.40;86.50
27819;DHT22;15192;44.854;10.046;2023-08-07T07:24:46;24.60;87.70
27819;DHT22;15192;44.854;10.046;2023-08-07T07:27:14;24.70;87.50
27819;DHT22;15192;44.854;10.046;2023-08-07T07:29:42;24.70;85.40
27819;DHT22;15192;44.854;10.046;2023-08-07T07:32:10;24.70;86.00
27819;DHT22;15192;44.854;10.046;2023-08-07T07:34:38;24.90;87.60
27819;DHT22;15192;44.854;10.046;2023-08-07T07:37:06;24.90;85.60
27819;DHT22;15192;44.854;10.046;2023-08-07T07:39:34;25.00;85.40
27819;DHT22;15192;44.854;10.046;2023-08-07T07:42:02;25.20;84.80
27819;DHT22;15192;44.854;10.046;2023-08-07T07:44:31;25.10;84.50
27819;DHT22;15192;44.854;10.046;2023-08-07T07:47:01;25.20;85.80
27819;DHT22;15192;44.854;10.046;2023-08-07T07:49:29;25.20;83.70
27819;DHT22;15192;44.854;10.046;2023-08-07T07:51:57;25.20;83.60
27819;DHT22;15192;44.854;10.046;2023-08-07T07:54:25;25.20;83.70
27819;DHT22;15192;44.854;10.046;2023-08-07T07:56:53;25.10;83.60
27819;DHT22;15192;44.854;10.046;2023-08-07T07:59:21;25.20;84.30
27819;DHT22;15192;44.854;10.046;2023-08-07T08:01:49;25.40;84.40
27819;DHT22;15192;44.854;10.046;2023-08-07T08:04:18;25.70;85.60
27819;DHT22;15192;44.854;10.046;2023-08-07T08:06:46;25.90;83.20
27819;DHT22;15192;44.854;10.046;2023-08-07T08:09:15;26.00;84.40
27819;DHT22;15192;44.854;10.046;2023-08-07T08:11:43;26.00;83.50
27819;DHT22;15192;44.854;10.046;2023-08-07T08:14:11;26.10;82.00
27819;DHT22;15192;44.854;10.046;2023-08-07T08:16:39;26.00;85.20
27819;DHT22;15192;44.854;10.046;2023-08-07T08:19:07;26.00;83.70
27819;DHT22;15192;44.854;10.046;2023-08-07T08:21:36;26.20;84.00
27819;DHT22;15192;44.854;10.046;2023-08-07T08:24:04;26.30;82.80
27819;DHT22;15192;44.854;10.046;2023-08-07T08:26:32;26.30;82.70
27819;DHT22;15192;44.854;10.046;2023-08-07T08:29:01;26.40;83.00
27819;DHT22;15192;44.854;10.046;2023-08-07T08:31:29;26.40;83.60
27819;DHT22;15192;44.854;10.046;2023-08-07T08:33:57;26.50;84.80
27819;DHT22;15192;44.854;10.046;2023-08-07T08:36:25;26.50;81.30
27819;DHT22;15192;44.854;10.046;2023-08-07T08:38:53;26.40;82.20
27819;DHT22;15192;44.854;10.046;2023-08-07T08:41:21;26.50;84.60
27819;DHT22;15192;44.854;10.046;2023-08-07T08:43:49;26.50;84.80
27819;DHT22;15192;44.854;10.046;2023-08-07T08:46:17;26.60;83.40
27819;DHT22;15192;44.854;10.046;2023-08-07T08:48:50;26.60;83.60
27819;DHT22;15192;44.854;10.046;2023-08-07T08:51:17;26.70;85.20
27819;DHT22;15192;44.854;10.046;2023-08-07T08:53:48;26.70;83.70
27819;DHT22;15192;44.854;10.046;2023-08-07T08:56:17;26.70;83.50
27819;DHT22;15192;44.854;10.046;2023-08-07T08:58:45;26.80;84.20
27819;DHT22;15192;44.854;10.046;2023-08-07T09:01:13;26.50;83.00
27819;DHT22;15192;44.854;10.046;2023-08-07T09:03:42;26.50;84.10
27819;DHT22;15192;44.854;10.046;2023-08-07T09:06:12;26.40;81.70
27819;DHT22;15192;44.854;10.046;2023-08-07T09:08:42;26.30;83.70
27819;DHT22;15192;44.854;10.046;2023-08-07T09:11:10;26.30;83.70
27819;DHT22;15192;44.854;10.046;2023-08-07T09:13:40;26.30;83.70
27819;DHT22;15192;44.854;10.046;2023-08-07T09:16:08;26.30;84.10
27819;DHT22;15192;44.854;10.046;2023-08-07T09:18:37;26.30;82.80
27819;DHT22;15192;44.854;10.046;2023-08-07T09:21:05;26.20;83.20
27819;DHT22;15192;44.854;10.046;2023-08-07T09:23:33;26.00;84.50
27819;DHT22;15192;44.854;10.046;2023-08-07T09:26:02;26.00;86.50
27819;DHT22;15192;44.854;10.046;2023-08-07T09:28:31;26.10;86.20
27819;DHT22;15192;44.854;10.046;2023-08-07T09:30:59;26.00;84.40
27819;DHT22;15192;44.854;10.046;2023-08-07T09:33:29;26.00;84.70
27819;DHT22;15192;44.854;10.046;2023-08-07T09:36:01;26.00;84.30
27819;DHT22;15192;44.854;10.046;2023-08-07T09:38:30;26.00;86.60
27819;DHT22;15192;44.854;10.046;2023-08-07T09:41:01;26.00;84.50
27819;DHT22;15192;44.854;10.046;2023-08-07T09:43:34;26.00;84.30
27819;DHT22;15192;44.854;10.046;2023-08-07T09:46:03;25.90;85.00
27819;DHT22;15192;44.854;10.046;2023-08-07T09:48:31;25.80;84.40
27819;DHT22;15192;44.854;10.046;2023-08-07T09:51:01;25.80;84.20
27819;DHT22;15192;44.854;10.046;2023-08-07T09:53:30;25.80;83.60
27819;DHT22;15192;44.854;10.046;2023-08-07T09:55:58;25.80;85.00
27819;DHT22;15192;44.854;10.046;2023-08-07T09:58:27;25.70;85.40
27819;DHT22;15192;44.854;10.046;2023-08-07T10:00:55;25.60;85.60
27819;DHT22;15192;44.854;10.046;2023-08-07T10:03:26;25.70;84.70
27819;DHT22;15192;44.854;10.046;2023-08-07T10:05:54;25.70;85.40
27819;DHT22;15192;44.854;10.046;2023-08-07T10:08:22;25.70;81.70
27819;DHT22;15192;44.854;10.046;2023-08-07T10:10:51;25.70;80.70
27819;DHT22;15192;44.854;10.046;2023-08-07T10:13:19;25.80;82.20
27819;DHT22;15192;44.854;10.046;2023-08-07T10:15:49;25.80;79.70
27819;DHT22;15192;44.854;10.046;2023-08-07T10:18:17;25.70;79.80
27819;DHT22;15192;44.854;10.046;2023-08-07T10:20:45;25.60;81.60
27819;DHT22;15192;44.854;10.046;2023-08-07T10:23:13;25.50;82.40
27819;DHT22;15192;44.854;10.046;2023-08-07T10:25:44;25.60;82.00
27819;DHT22;15192;44.854;10.046;2023-08-07T10:28:13;25.60;81.80
27819;DHT22;15192;44.854;10.046;2023-08-07T10:30:42;25.60;80.30
27819;DHT22;15192;44.854;10.046;2023-08-07T10:33:10;25.60;81.20
27819;DHT22;15192;44.854;10.046;2023-08-07T10:35:44;25.60;79.50
27819;DHT22;15192;44.854;10.046;2023-08-07T10:38:09;25.70;82.10
27819;DHT22;15192;44.854;10.046;2023-08-07T10:43:24;25.70;83.20
27819;DHT22;15192;44.854;10.046;2023-08-07T10:45:54;25.90;85.40
27819;DHT22;15192;44.854;10.046;2023-08-07T10:48:23;26.00;84.10
27819;DHT22;15192;44.854;10.046;2023-08-07T10:50:56;25.90;83.60
27819;DHT22;15192;44.854;10.046;2023-08-07T10:53:32;26.00;85.20
27819;DHT22;15192;44.854;10.046;2023-08-07T10:55:50;26.10;81.80
27819;DHT22;15192;44.854;10.046;2023-08-07T10:58:22;26.10;83.10
27819;DHT22;15192;44.854;10.046;2023-08-07T11:03:26;26.20;81.90
27819;DHT22;15192;44.854;10.046;2023-08-07T11:05:57;26.40;81.10
27819;DHT22;15192;44.854;10.046;2023-08-07T11:08:24;26.40;78.70
27819;DHT22;15192;44.854;10.046;2023-08-07T11:10:52;26.30;79.30
27819;DHT22;15192;44.854;10.046;2023-08-07T11:13:22;26.30;78.90
27819;DHT22;15192;44.854;10.046;2023-08-07T11:15:49;26.20;79.10
27819;DHT22;15192;44.854;10.046;2023-08-07T11:18:18;26.10;79.70
27819;DHT22;15192;44.854;10.046;2023-08-07T11:20:46;26.10;78.20
27819;DHT22;15192;44.854;10.046;2023-08-07T11:23:15;26.10;78.00
27819;DHT22;15192;44.854;10.046;2023-08-07T11:25:43;26.10;79.10
27819;DHT22;15192;44.854;10.046;2023-08-07T11:28:11;26.20;78.30
27819;DHT22;15192;44.854;10.046;2023-08-07T11:30:39;26.20;76.10
27819;DHT22;15192;44.854;10.046;2023-08-07T11:33:07;26.20;77.50
27819;DHT22;15192;44.854;10.046;2023-08-07T11:35:35;26.20;76.40
27819;DHT22;15192;44.854;10.046;2023-08-07T11:38:05;26.10;75.20
27819;DHT22;15192;44.854;10.046;2023-08-07T11:40:33;26.10;74.20
27819;DHT22;15192;44.854;10.046;2023-08-07T11:43:01;26.00;77.30
27819;DHT22;15192;44.854;10.046;2023-08-07T11:45:29;26.10;76.50
27819;DHT22;15192;44.854;10.046;2023-08-07T11:47:57;26.10;76.20
27819;DHT22;15192;44.854;10.046;2023-08-07T11:50:29;26.20;77.00
27819;DHT22;15192;44.854;10.046;2023-08-07T11:52:57;26.20;78.40
27819;DHT22;15192;44.854;10.046;2023-08-07T11:55:28;26.20;76.60
27819;DHT22;15192;44.854;10.046;2023-08-07T11:57:57;26.20;77.10
27819;DHT22;15192;44.854;10.046;2023-08-07T12:00:25;26.30;77.10
27819;DHT22;15192;44.854;10.046;2023-08-07T12:02:54;26.30;77.70
27819;DHT22;15192;44.854;10.046;2023-08-07T12:05:22;26.30;78.90
27819;DHT22;15192;44.854;10.046;2023-08-07T12:07:51;26.40;78.10
27819;DHT22;15192;44.854;10.046;2023-08-07T12:10:19;26.50;77.10
27819;DHT22;15192;44.854;10.046;2023-08-07T12:12:47;26.40;76.80
27819;DHT22;15192;44.854;10.046;2023-08-07T12:15:16;26.60;78.10
27819;DHT22;15192;44.854;10.046;2023-08-07T12:17:44;26.70;79.30
27819;DHT22;15192;44.854;10.046;2023-08-07T12:20:12;26.70;78.20
27819;DHT22;15192;44.854;10.046;2023-08-07T12:22:40;26.70;77.50
27819;DHT22;15192;44.854;10.046;2023-08-07T12:25:08;26.70;77.40
27819;DHT22;15192;44.854;10.046;2023-08-07T12:27:36;26.70;78.40
27819;DHT22;15192;44.854;10.046;2023-08-07T12:30:04;26.60;75.70
27819;DHT22;15192;44.854;10.046;2023-08-07T12:32:32;26.60;78.20
27819;DHT22;15192;44.854;10.046;2023-08-07T12:35:00;26.70;76.50
27819;DHT22;15192;44.854;10.046;2023-08-07T12:37:28;26.70;78.90
27819;DHT22;15192;44.854;10.046;2023-08-07T12:39:56;26.70;76.70
27819;DHT22;15192;44.854;10.046;2023-08-07T12:42:24;26.60;76.50
27819;DHT22;15192;44.854;10.046;2023-08-07T12:44:52;26.60;76.70
27819;DHT22;15192;44.854;10.046;2023-08-07T12:47:20;26.60;77.20
27819;DHT22;15192;44.854;10.046;2023-08-07T12:49:48;26.60;76.90
27819;DHT22;15192;44.854;10.046;2023-08-07T12:52:16;26.60;78.20
27819;DHT22;15192;44.854;10.046;2023-08-07T12:54:44;26.60;77.50
27819;DHT22;15192;44.854;10.046;2023-08-07T12:57:12;26.70;78.60
27819;DHT22;15192;44.854;10.046;2023-08-07T12:59:40;26.70;77.70
27819;DHT22;15192;44.854;10.046;2023-08-07T13:02:08;26.70;76.40
27819;DHT22;15192;44.854;10.046;2023-08-07T13:04:36;26.70;76.40
27819;DHT22;15192;44.854;10.046;2023-08-07T13:07:04;26.70;75.20
27819;DHT22;15192;44.854;10.046;2023-08-07T13:09:32;26.70;77.90
27819;DHT22;15192;44.854;10.046;2023-08-07T13:12:00;26.80;77.10
27819;DHT22;15192;44.854;10.046;2023-08-07T13:14:28;26.90;77.90
27819;DHT22;15192;44.854;10.046;2023-08-07T13:16:57;26.90;74.40
27819;DHT22;15192;44.854;10.046;2023-08-07T13:19:25;26.80;75.90
27819;DHT22;15192;44.854;10.046;2023-08-07T13:21:53;26.70;76.10
27819;DHT22;15192;44.854;10.046;2023-08-07T13:24:21;26.80;78.00
27819;DHT22;15192;44.854;10.046;2023-08-07T13:26:49;26.80;77.50
27819;DHT22;15192;44.854;10.046;2023-08-07T13:29:17;26.80;75.00
27819;DHT22;15192;44.854;10.046;2023-08-07T13:31:45;26.80;75.80
27819;DHT22;15192;44.854;10.046;2023-08-07T13:34:13;26.80;76.30
27819;DHT22;15192;44.854;10.046;2023-08-07T13:36:41;26.80;76.00
27819;DHT22;15192;44.854;10.046;2023-08-07T13:39:09;26.70;76.90
27819;DHT22;15192;44.854;10.046;2023-08-07T13:41:37;26.80;77.10
27819;DHT22;15192;44.854;10.046;2023-08-07T13:44:06;26.90;76.00
27819;DHT22;15192;44.854;10.046;2023-08-07T13:46:34;26.90;76.00
27819;DHT22;15192;44.854;10.046;2023-08-07T13:49:02;26.90;75.30
27819;DHT22;15192;44.854;10.046;2023-08-07T13:51:30;26.90;75.00
27819;DHT22;15192;44.854;10.046;2023-08-07T13:53:58;26.90;76.90
27819;DHT22;15192;44.854;10.046;2023-08-07T13:56:26;26.80;76.60
27819;DHT22;15192;44.854;10.046;2023-08-07T13:58:54;26.90;76.00
27819;DHT22;15192;44.854;10.046;2023-08-07T14:01:22;27.00;77.80
27819;DHT22;15192;44.854;10.046;2023-08-07T14:03:50;26.90;76.10
27819;DHT22;15192;44.854;10.046;2023-08-07T14:06:19;27.00;76.80
27819;DHT22;15192;44.854;10.046;2023-08-07T14:08:46;27.00;77.50
27819;DHT22;15192;44.854;10.046;2023-08-07T14:11:14;27.10;76.90
27819;DHT22;15192;44.854;10.046;2023-08-07T14:13:43;27.10;76.20
27819;DHT22;15192;44.854;10.046;2023-08-07T14:16:11;27.10;73.50
27819;DHT22;15192;44.854;10.046;2023-08-07T14:18:39;27.10;75.00
27819;DHT22;15192;44.854;10.046;2023-08-07T14:21:07;27.20;74.10
27819;DHT22;15192;44.854;10.046;2023-08-07T14:23:35;25.40;72.70
27819;DHT22;15192;44.854;10.046;2023-08-07T14:26:03;27.00;72.80
27819;DHT22;15192;44.854;10.046;2023-08-07T14:28:32;27.00;74.00
27819;DHT22;15192;44.854;10.046;2023-08-07T14:31:00;27.10;75.50
27819;DHT22;15192;44.854;10.046;2023-08-07T14:33:30;27.20;74.40
27819;DHT22;15192;44.854;10.046;2023-08-07T14:35:58;27.20;74.50
27819;DHT22;15192;44.854;10.046;2023-08-07T14:38:27;27.10;74.00
27819;DHT22;15192;44.854;10.046;2023-08-07T14:40:55;27.20;73.60
27819;DHT22;15192;44.854;10.046;2023-08-07T14:43:28;27.20;73.30
27819;DHT22;15192;44.854;10.046;2023-08-07T14:45:55;27.20;74.10
27819;DHT22;15192;44.854;10.046;2023-08-07T14:48:23;27.20;73.60
27819;DHT22;15192;44.854;10.046;2023-08-07T14:50:51;27.20;74.70
27819;DHT22;15192;44.854;10.046;2023-08-07T14:53:19;27.20;73.60
27819;DHT22;15192;44.854;10.046;2023-08-07T14:55:47;25.10;71.80
27819;DHT22;15192;44.854;10.046;2023-08-07T14:58:15;27.20;74.10
27819;DHT22;15192;44.854;10.046;2023-08-07T15:00:43;27.20;73.70
27819;DHT22;15192;44.854;10.046;2023-08-07T15:03:11;27.20;73.50
27819;DHT22;15192;44.854;10.046;2023-08-07T15:05:39;27.20;75.30
27819;DHT22;15192;44.854;10.046;2023-08-07T15:08:07;27.30;77.10
27819;DHT22;15192;44.854;10.046;2023-08-07T15:10:35;27.40;72.30
27819;DHT22;15192;44.854;10.046;2023-08-07T15:13:03;27.40;69.10
27819;DHT22;15192;44.854;10.046;2023-08-07T15:15:32;27.40;69.70
27819;DHT22;15192;44.854;10.046;2023-08-07T15:17:59;27.40;70.40
27819;DHT22;15192;44.854;10.046;2023-08-07T15:20:29;27.50;69.60
27819;DHT22;15192;44.854;10.046;2023-08-07T15:22:57;27.50;72.10
27819;DHT22;15192;44.854;10.046;2023-08-07T15:25:26;27.50;72.10
27819;DHT22;15192;44.854;10.046;2023-08-07T15:27:54;27.20;73.30
27819;DHT22;15192;44.854;10.046;2023-08-07T15:30:23;27.50;73.50